54J

Defuniak Springs Airport

Defuniak Springs, Florida, USA
METAR K54J 181335Z AUTO 00000KT 1/4SM FG OVC004 14/14 A3012 RMK AO2 T01420140
Observed Flight Rules
Jan-18 @ 13:35 UTC (10 minutes ago) Instrument Flight Rules
Visibility Clouds Conditions
1/4 miles
  • Overcast at 400' AGL
  • Fog
Temperatures Readings
Current 14°C / 57°F
Dewpoint 14°C / 57°F
Humidity 100%
Altimeter 30.12" Hg
Pressure 1020.02 hPa
Elevation 88
METAR K54J 181335Z AUTO 00000KT 1/4SM FG OVC004 14/14 A3012 RMK AO2 T01420140
Observed Flight Rules
Jan-18 @ 13:35 UTC
(10 minutes ago)
LIFR
Clouds
  • Overcast at 400' AGL
Conditions
  • Fog
Temperature Dewpoint
14°C / 57°F 14°C / 57°F
Humidity Altimeter Pressure
100% 30.12" Hg 1020.02 hPa